If you wish to contribute or participate in the discussions about articles you are invited to join SKYbrary as a registered user

 Actions

Ambler Airport

From SKYbrary Wiki

PAFM
Airport
ICAO: PAFM – IATA: ABL
Summary
Name Ambler Airport
Region North America
Territory Alaska US.gif
Location , Alaska
Serving Ambler
Elevation 101.803 m
334 ft
334 ft101.803 m
Type medium airport
Coordinates 67° 6' 23.0004", -157° 51' 27"
Runways
Designator Length Width Surface ROPS
9/27 732 m2,401.575 ft 18 m59.055 ft GVL /
18/36 914 m2,998.688 ft 18 m59.055 ft GVL /


METAR
Observation PAFM 232256Z AUTO 23006KT 10SM -RA FEW027 BKN037 OVC049 13/09 A3008 RMK AO2 RAB24 SLP201 P0000 T01280089
Station Ambler, Ambler Airport
Date/Time 23 June 2018 22:56:00
Wind direction 230°
Wind speed 06 kts
Lowest cloud amount few clouds
Temperature 12.8°C
Dew point 8.9°C
Humidity 77%
QNH hPa
Weather condition light rain